createdAt,value
2018-07-14T00:01:51.289Z,58.10
2018-07-14T00:04:18.522Z,58.10
2018-07-14T00:06:45.720Z,58.10
2018-07-14T00:09:12.941Z,58.10
2018-07-14T00:11:40.190Z,57.90
2018-07-14T00:14:07.388Z,57.90
2018-07-14T00:16:34.600Z,58.10
2018-07-14T00:19:01.815Z,58.20
2018-07-14T00:21:29.143Z,58.20
2018-07-14T00:23:56.376Z,58.20
2018-07-14T00:26:23.596Z,58.20
2018-07-14T00:28:50.781Z,58.20
2018-07-14T00:31:18.020Z,58.20
2018-07-14T00:33:45.188Z,58.20
2018-07-14T00:36:12.437Z,58.20
2018-07-14T00:38:39.651Z,58.20
2018-07-14T00:41:06.884Z,58.20
2018-07-14T00:43:34.153Z,58.20
2018-07-14T00:46:01.477Z,58.10
2018-07-14T00:48:28.769Z,58.20
2018-07-14T00:50:55.989Z,58.30
2018-07-14T00:53:23.285Z,58.40
2018-07-14T00:55:51.344Z,58.40
2018-07-14T00:58:18.745Z,58.50
2018-07-14T01:00:46.024Z,58.50
2018-07-14T01:03:13.169Z,58.50
2018-07-14T01:05:41.052Z,58.60
2018-07-14T01:08:08.264Z,58.70
2018-07-14T01:10:35.420Z,58.70
2018-07-14T01:13:02.604Z,58.60
2018-07-14T01:15:29.796Z,58.60
2018-07-14T01:17:56.964Z,58.80
2018-07-14T01:20:24.172Z,58.80
2018-07-14T01:22:51.360Z,58.80
2018-07-14T01:25:18.568Z,58.90
2018-07-14T01:27:45.761Z,58.90
2018-07-14T01:30:13.036Z,58.90
2018-07-14T01:32:40.285Z,59.10
2018-07-14T01:35:07.864Z,59.20
2018-07-14T01:37:35.215Z,59.30
2018-07-14T01:40:02.521Z,59.30
2018-07-14T01:42:29.760Z,59.40
2018-07-14T01:44:56.956Z,59.20
2018-07-14T01:47:24.203Z,59.30
2018-07-14T01:49:51.464Z,59.40
2018-07-14T01:52:18.657Z,59.60
2018-07-14T01:54:45.843Z,59.60
2018-07-14T01:57:13.040Z,59.60
2018-07-14T02:02:07.589Z,59.60
2018-07-14T02:04:34.787Z,59.70
2018-07-14T02:07:02.040Z,59.80
2018-07-14T02:09:29.252Z,60.30
2018-07-14T02:11:56.416Z,59.80
2018-07-14T02:14:23.564Z,60.10
2018-07-14T02:16:50.732Z,60.40
2018-07-14T02:19:17.965Z,60.20
2018-07-14T02:21:45.248Z,60.20
2018-07-14T02:24:12.472Z,61.30
2018-07-14T02:26:39.703Z,60.70
2018-07-14T02:29:06.974Z,60.60
2018-07-14T02:31:34.211Z,60.50
2018-07-14T02:34:01.432Z,60.40
2018-07-14T02:36:28.661Z,60.80
2018-07-14T02:38:55.916Z,61.10
2018-07-14T02:41:23.141Z,60.90
2018-07-14T02:43:50.332Z,60.80
2018-07-14T02:46:17.580Z,60.90
2018-07-14T02:48:44.708Z,60.80
2018-07-14T02:51:11.933Z,60.90
2018-07-14T02:53:39.126Z,61.50
2018-07-14T02:56:06.377Z,61.20
2018-07-14T02:58:33.637Z,61.20
2018-07-14T03:01:00.861Z,61.30
2018-07-14T03:03:28.094Z,61.50
2018-07-14T03:05:55.277Z,61.50
2018-07-14T03:08:22.500Z,61.80
2018-07-14T03:10:49.712Z,61.80
2018-07-14T03:13:16.903Z,61.70
2018-07-14T03:15:44.177Z,61.40
2018-07-14T03:18:11.384Z,61.20
2018-07-14T03:20:38.699Z,61.60
2018-07-14T03:23:05.949Z,61.50
2018-07-14T03:25:33.173Z,61.80
2018-07-14T03:28:00.891Z,61.60
2018-07-14T03:30:28.068Z,61.60
2018-07-14T03:32:55.296Z,61.60
2018-07-14T03:35:22.512Z,61.80
2018-07-14T03:37:49.721Z,61.50
2018-07-14T03:40:16.997Z,61.60
2018-07-14T03:42:44.238Z,62.00
2018-07-14T03:45:11.384Z,61.50
2018-07-14T03:47:38.622Z,61.60
2018-07-14T03:50:05.841Z,61.90
2018-07-14T03:52:33.064Z,61.80
2018-07-14T03:55:00.300Z,61.50
2018-07-14T03:57:27.492Z,61.50
2018-07-14T03:59:54.699Z,61.50
2018-07-14T04:02:21.892Z,61.40
2018-07-14T04:04:49.205Z,61.70
2018-07-14T04:07:16.460Z,61.40
2018-07-14T04:09:43.674Z,61.50
2018-07-14T04:12:11.524Z,61.50
2018-07-14T04:14:38.736Z,61.60
2018-07-14T04:17:05.953Z,61.70
2018-07-14T04:19:33.196Z,62.50
2018-07-14T04:22:00.492Z,62.50
2018-07-14T04:24:27.733Z,63.60
2018-07-14T04:26:54.943Z,64.10
2018-07-14T04:29:22.173Z,64.60
2018-07-14T04:31:49.421Z,65.00
2018-07-14T04:34:16.604Z,64.70
2018-07-14T04:36:43.777Z,64.80
2018-07-14T04:39:11.024Z,65.30
2018-07-14T04:41:38.286Z,66.00
2018-07-14T04:44:05.572Z,66.30
2018-07-14T04:46:32.747Z,66.00
2018-07-14T04:49:00.029Z,67.30
2018-07-14T04:51:27.232Z,66.90
2018-07-14T04:53:54.484Z,67.00
2018-07-14T04:56:21.757Z,67.80
2018-07-14T04:58:48.952Z,66.70
2018-07-14T05:01:16.192Z,66.90
2018-07-14T05:03:43.594Z,67.20
2018-07-14T05:06:10.801Z,66.90
2018-07-14T05:08:38.028Z,66.80
2018-07-14T05:11:05.463Z,66.50
2018-07-14T05:13:32.656Z,66.20
2018-07-14T05:15:59.860Z,66.20
2018-07-14T05:18:27.096Z,66.50
2018-07-14T05:20:55.089Z,66.20
2018-07-14T05:25:49.444Z,66.10
2018-07-14T05:28:16.680Z,66.30
2018-07-14T05:30:43.912Z,66.20
2018-07-14T05:33:11.154Z,66.40
2018-07-14T05:35:38.387Z,66.30
2018-07-14T05:38:05.597Z,66.00
2018-07-14T05:40:32.856Z,65.60
2018-07-14T05:43:00.081Z,65.30
2018-07-14T05:45:27.298Z,65.30
2018-07-14T05:47:54.750Z,64.90
2018-07-14T05:50:21.980Z,64.40
2018-07-14T05:52:49.160Z,64.30
2018-07-14T05:55:16.403Z,63.50
2018-07-14T05:57:43.603Z,63.30
2018-07-14T06:00:10.852Z,62.90
2018-07-14T06:02:38.084Z,62.50
2018-07-14T06:05:05.297Z,62.70
2018-07-14T06:07:32.546Z,62.30
2018-07-14T06:09:59.740Z,62.40
2018-07-14T06:12:27.035Z,62.40
2018-07-14T06:14:54.227Z,61.80
2018-07-14T06:17:21.433Z,61.40
2018-07-14T06:19:48.624Z,62.30
2018-07-14T06:22:15.810Z,61.30
2018-07-14T06:24:43.049Z,60.90
2018-07-14T06:27:10.220Z,61.00
2018-07-14T06:29:37.497Z,61.10
2018-07-14T06:32:04.817Z,61.00
2018-07-14T06:34:32.089Z,60.40
2018-07-14T06:36:59.280Z,60.50
2018-07-14T06:39:26.508Z,60.20
2018-07-14T06:41:53.743Z,60.00
2018-07-14T06:44:21.036Z,59.90
2018-07-14T06:46:48.252Z,59.70
2018-07-14T06:49:15.464Z,59.90
2018-07-14T06:51:42.679Z,59.60
2018-07-14T06:54:09.971Z,59.90
2018-07-14T06:56:37.224Z,60.00
2018-07-14T06:59:04.420Z,59.90
2018-07-14T07:01:31.648Z,59.70
2018-07-14T07:03:58.851Z,59.80
2018-07-14T07:06:26.089Z,59.90
2018-07-14T07:08:53.296Z,59.80
2018-07-14T07:11:20.519Z,59.40
2018-07-14T07:13:47.824Z,59.80
2018-07-14T07:16:14.966Z,59.50
2018-07-14T07:18:42.171Z,59.60
2018-07-14T07:21:10.222Z,59.60
2018-07-14T07:26:04.825Z,59.60
2018-07-14T07:28:32.056Z,59.60
2018-07-14T07:30:59.324Z,59.60
2018-07-14T07:33:26.540Z,59.30
2018-07-14T07:35:53.836Z,59.10
2018-07-14T07:38:21.200Z,59.00
2018-07-14T07:40:48.398Z,58.90
2018-07-14T07:43:15.691Z,58.60
2018-07-14T07:45:42.932Z,58.70
2018-07-14T07:48:10.217Z,58.70
2018-07-14T07:50:37.442Z,58.80
2018-07-14T07:53:04.788Z,58.90
2018-07-14T07:55:32.055Z,58.80
2018-07-14T07:57:59.359Z,58.60
2018-07-14T08:00:26.552Z,58.60
2018-07-14T08:02:53.737Z,58.40
2018-07-14T08:05:20.892Z,58.90
2018-07-14T08:07:48.090Z,58.20
2018-07-14T08:10:15.342Z,58.10
2018-07-14T08:12:42.576Z,58.20
2018-07-14T08:15:09.860Z,58.30
2018-07-14T08:17:37.368Z,58.40
2018-07-14T08:20:04.784Z,58.20
2018-07-14T08:22:32.060Z,58.10
2018-07-14T08:24:59.205Z,58.00
2018-07-14T08:27:26.427Z,58.00
2018-07-14T08:29:53.647Z,57.80
2018-07-14T08:32:20.913Z,57.70
2018-07-14T08:34:48.084Z,57.40
2018-07-14T08:37:15.298Z,57.20
2018-07-14T08:39:42.483Z,57.20
2018-07-14T08:42:09.686Z,57.30
2018-07-14T08:44:37.097Z,57.20
2018-07-14T08:47:04.901Z,57.50
2018-07-14T08:49:32.162Z,57.30
2018-07-14T08:51:59.360Z,56.50
2018-07-14T08:54:26.808Z,56.20
2018-07-14T08:56:54.108Z,56.00
2018-07-14T08:59:21.340Z,55.90
2018-07-14T09:01:48.577Z,56.00
2018-07-14T09:04:15.826Z,55.40
2018-07-14T09:06:43.048Z,54.90
2018-07-14T09:09:10.319Z,54.90
2018-07-14T09:11:37.556Z,54.80
2018-07-14T09:14:04.766Z,54.80
2018-07-14T09:16:31.968Z,54.80
2018-07-14T09:18:59.169Z,54.40
2018-07-14T09:21:27.160Z,54.30
2018-07-14T09:23:54.373Z,54.60
2018-07-14T09:26:21.631Z,54.50
2018-07-14T09:28:49.330Z,54.80
2018-07-14T09:31:16.658Z,54.90
2018-07-14T09:33:43.869Z,54.90
2018-07-14T09:36:11.117Z,55.20
2018-07-14T09:38:38.337Z,55.00
2018-07-14T09:41:05.512Z,54.60
2018-07-14T09:43:32.770Z,54.50
2018-07-14T09:45:59.966Z,54.50
2018-07-14T09:48:27.268Z,54.50
2018-07-14T09:50:54.480Z,54.40
2018-07-14T09:53:21.700Z,54.00
2018-07-14T09:55:48.931Z,54.30
2018-07-14T09:58:16.246Z,54.40
2018-07-14T10:00:50.335Z,54.40
2018-07-14T10:03:17.682Z,54.40
2018-07-14T10:05:44.819Z,54.40
2018-07-14T10:08:12.056Z,54.50
2018-07-14T10:10:39.229Z,54.20
2018-07-14T10:15:33.736Z,54.10
2018-07-14T10:18:00.956Z,54.10
2018-07-14T10:20:28.216Z,54.00
2018-07-14T10:22:55.460Z,54.20
2018-07-14T10:25:22.792Z,54.20
2018-07-14T10:27:49.927Z,54.30
2018-07-14T10:30:17.194Z,54.10
2018-07-14T10:32:44.431Z,53.90
2018-07-14T10:35:11.637Z,53.80
2018-07-14T10:40:06.097Z,53.80
2018-07-14T10:42:33.413Z,53.90
2018-07-14T10:45:00.594Z,53.80
2018-07-14T10:47:27.810Z,54.00
2018-07-14T10:49:54.972Z,53.80
2018-07-14T10:52:22.186Z,53.70
2018-07-14T10:54:49.436Z,53.50
2018-07-14T10:57:16.718Z,53.40
2018-07-14T10:59:43.900Z,53.30
2018-07-14T11:02:11.059Z,53.20
2018-07-14T11:04:38.254Z,53.00
2018-07-14T11:07:05.484Z,53.00
2018-07-14T11:09:32.797Z,53.60
2018-07-14T11:12:00.109Z,52.90
2018-07-14T11:14:27.260Z,52.80
2018-07-14T11:16:54.484Z,52.50
2018-07-14T11:19:21.650Z,53.40
2018-07-14T11:21:48.888Z,53.20
2018-07-14T11:24:16.120Z,53.20
2018-07-14T11:26:43.356Z,53.40
2018-07-14T11:29:10.564Z,53.50
2018-07-14T11:31:37.836Z,53.10
2018-07-14T11:34:05.143Z,53.20
2018-07-14T11:36:32.356Z,53.20
2018-07-14T11:38:59.713Z,53.40
2018-07-14T11:41:26.967Z,52.80
2018-07-14T11:43:54.224Z,53.20
2018-07-14T11:46:21.463Z,52.40
2018-07-14T11:48:48.618Z,52.40
2018-07-14T11:51:15.904Z,52.10
2018-07-14T11:53:43.132Z,52.20
2018-07-14T11:56:10.382Z,52.40
2018-07-14T11:58:37.607Z,52.10
2018-07-14T12:01:04.891Z,52.00
2018-07-14T12:03:32.433Z,52.30
2018-07-14T12:05:59.667Z,52.40
2018-07-14T12:08:26.936Z,52.00
2018-07-14T12:10:54.216Z,51.70
2018-07-14T12:13:22.090Z,51.70
2018-07-14T12:15:50.105Z,51.60
2018-07-14T12:18:17.281Z,52.00
2018-07-14T12:20:44.535Z,51.60
2018-07-14T12:23:11.757Z,51.10
2018-07-14T12:25:39.020Z,51.10
2018-07-14T12:28:06.419Z,50.90
2018-07-14T12:30:33.678Z,50.90
2018-07-14T12:33:00.884Z,51.30
2018-07-14T12:35:28.136Z,51.50
2018-07-14T12:37:55.377Z,51.50
2018-07-14T12:40:22.623Z,51.70
2018-07-14T12:42:49.825Z,52.00
2018-07-14T12:45:17.081Z,52.20
2018-07-14T12:47:44.271Z,52.00
2018-07-14T12:50:11.513Z,51.90
2018-07-14T12:52:38.737Z,51.40
2018-07-14T12:55:06.248Z,50.40
2018-07-14T12:57:33.541Z,50.70
2018-07-14T13:00:00.851Z,50.50
2018-07-14T13:02:28.037Z,50.00
2018-07-14T13:04:55.206Z,50.50
2018-07-14T13:07:22.554Z,50.50
2018-07-14T13:09:49.812Z,50.40
2018-07-14T13:12:17.593Z,50.00
2018-07-14T13:14:44.841Z,49.90
2018-07-14T13:17:12.414Z,49.80
2018-07-14T13:19:39.636Z,49.80
2018-07-14T13:22:06.948Z,50.00
2018-07-14T13:24:34.225Z,50.00
2018-07-14T13:27:01.428Z,50.00
2018-07-14T13:29:28.717Z,49.90
2018-07-14T13:31:56.019Z,50.10
2018-07-14T13:34:23.277Z,50.00
2018-07-14T13:36:50.520Z,50.00
2018-07-14T13:39:17.741Z,49.80
2018-07-14T13:41:44.960Z,49.90
2018-07-14T13:44:12.120Z,49.80
2018-07-14T13:46:39.398Z,49.40
2018-07-14T13:49:06.624Z,49.60
2018-07-14T13:51:33.920Z,49.60
2018-07-14T13:54:01.257Z,49.50
2018-07-14T13:56:28.459Z,49.70
2018-07-14T13:58:55.777Z,49.90
2018-07-14T14:01:23.012Z,50.00
2018-07-14T14:03:50.266Z,50.20
2018-07-14T14:06:17.487Z,50.10
2018-07-14T14:08:44.725Z,49.90
2018-07-14T14:11:11.939Z,49.60
2018-07-14T14:13:39.182Z,49.50
2018-07-14T14:16:06.894Z,49.50
2018-07-14T14:18:34.091Z,49.30
2018-07-14T14:21:01.387Z,49.30
2018-07-14T14:23:28.695Z,49.10
2018-07-14T14:25:55.918Z,49.10
2018-07-14T14:28:23.224Z,49.00
2018-07-14T14:30:50.464Z,49.20
2018-07-14T14:33:17.688Z,49.30
2018-07-14T14:35:44.861Z,49.30
2018-07-14T14:38:12.056Z,49.20
2018-07-14T14:40:39.390Z,49.00
2018-07-14T14:43:06.797Z,48.90
2018-07-14T14:45:34.062Z,49.40
2018-07-14T14:48:01.295Z,49.60
2018-07-14T14:50:28.524Z,49.80
2018-07-14T14:52:55.859Z,49.80
2018-07-14T14:55:23.200Z,49.60
2018-07-14T14:57:50.480Z,49.70
2018-07-14T15:00:17.765Z,49.70
2018-07-14T15:02:45.259Z,49.60
2018-07-14T15:05:12.596Z,49.70
2018-07-14T15:07:39.884Z,49.70
2018-07-14T15:10:07.234Z,49.70
2018-07-14T15:12:34.468Z,49.50
2018-07-14T15:15:01.817Z,49.40
2018-07-14T15:17:29.351Z,49.20
2018-07-14T15:19:56.625Z,49.40
2018-07-14T15:22:24.543Z,49.40
2018-07-14T15:24:51.890Z,49.30
2018-07-14T15:27:19.122Z,49.10
2018-07-14T15:29:46.525Z,49.50
2018-07-14T15:32:13.803Z,49.30
2018-07-14T15:34:40.981Z,49.30
2018-07-14T15:37:08.352Z,49.10
2018-07-14T15:39:35.541Z,49.00
2018-07-14T15:42:02.863Z,48.60
2018-07-14T15:44:30.059Z,48.80
2018-07-14T15:46:57.298Z,48.80
2018-07-14T15:49:24.660Z,48.70
2018-07-14T15:51:52.004Z,48.70
2018-07-14T15:54:19.316Z,48.70
2018-07-14T15:56:46.528Z,48.60
2018-07-14T15:59:13.812Z,48.50
2018-07-14T16:01:41.161Z,48.50
2018-07-14T16:04:08.385Z,48.60
2018-07-14T16:06:35.569Z,48.70
2018-07-14T16:09:03.742Z,48.50
2018-07-14T16:11:32.017Z,48.60
2018-07-14T16:13:59.318Z,48.80
2018-07-14T16:16:26.740Z,48.60
2018-07-14T16:18:53.929Z,48.70
2018-07-14T16:21:21.262Z,48.90
2018-07-14T16:23:48.560Z,48.70
2018-07-14T16:26:15.880Z,49.20
2018-07-14T16:28:43.132Z,49.90
2018-07-14T16:31:10.431Z,50.00
2018-07-14T16:33:37.632Z,49.90
2018-07-14T16:36:05.025Z,49.60
2018-07-14T16:38:32.302Z,49.80
2018-07-14T16:40:59.515Z,50.20
2018-07-14T16:43:26.792Z,49.80
2018-07-14T16:45:54.032Z,49.50
2018-07-14T16:48:21.251Z,49.30
2018-07-14T16:50:48.481Z,49.50
2018-07-14T16:53:15.741Z,49.50
2018-07-14T16:55:42.972Z,49.40
2018-07-14T16:58:10.191Z,50.20
2018-07-14T17:00:37.408Z,49.40
2018-07-14T17:03:04.677Z,49.60
2018-07-14T17:05:31.889Z,49.70
2018-07-14T17:07:59.103Z,49.50
2018-07-14T17:10:26.268Z,49.60
2018-07-14T17:12:53.537Z,49.70
2018-07-14T17:15:20.768Z,49.80
2018-07-14T17:17:48.001Z,49.80
2018-07-14T17:20:15.298Z,49.60
2018-07-14T17:22:42.552Z,49.70
2018-07-14T17:25:09.886Z,49.60
2018-07-14T17:27:37.084Z,49.60
2018-07-14T17:30:04.349Z,49.60
2018-07-14T17:32:31.629Z,49.30
2018-07-14T17:34:58.970Z,49.40
2018-07-14T17:37:26.253Z,49.30
2018-07-14T17:39:53.511Z,49.40
2018-07-14T17:42:20.840Z,49.20
2018-07-14T17:44:48.100Z,49.00
2018-07-14T17:47:15.406Z,49.50
2018-07-14T17:49:42.597Z,48.90
2018-07-14T17:52:09.888Z,48.80
2018-07-14T17:54:36.934Z,48.80
2018-07-14T17:57:04.277Z,48.90
2018-07-14T17:59:31.580Z,48.80
2018-07-14T18:01:58.744Z,48.80
2018-07-14T18:04:25.921Z,48.90
2018-07-14T18:06:53.189Z,48.90
2018-07-14T18:09:20.438Z,49.10
2018-07-14T18:11:47.649Z,48.90
2018-07-14T18:14:14.888Z,49.00
2018-07-14T18:16:42.121Z,49.00
2018-07-14T18:19:09.390Z,49.10
2018-07-14T18:21:36.637Z,49.10
2018-07-14T18:24:03.881Z,49.10
2018-07-14T18:26:31.124Z,49.10
2018-07-14T18:28:58.360Z,49.10
2018-07-14T18:31:25.560Z,49.20
2018-07-14T18:33:52.757Z,49.20
2018-07-14T18:36:20.037Z,49.20
2018-07-14T18:38:47.146Z,49.20
2018-07-14T18:41:14.405Z,49.20
2018-07-14T18:43:41.606Z,49.30
2018-07-14T18:46:08.793Z,49.20
2018-07-14T18:48:36.010Z,49.30
2018-07-14T18:51:03.152Z,49.30
2018-07-14T18:53:30.368Z,49.40
2018-07-14T18:55:57.685Z,49.60
2018-07-14T18:58:24.912Z,49.60
2018-07-14T19:00:52.112Z,49.70
2018-07-14T19:03:19.305Z,49.90
2018-07-14T19:05:46.504Z,50.00
2018-07-14T19:08:13.736Z,50.20
2018-07-14T19:10:40.986Z,50.50
2018-07-14T19:13:08.165Z,50.60
2018-07-14T19:15:35.438Z,50.70
2018-07-14T19:18:02.616Z,50.80
2018-07-14T19:20:29.832Z,50.80
2018-07-14T19:22:57.000Z,50.90
2018-07-14T19:25:24.181Z,51.10
2018-07-14T19:27:51.455Z,51.10
2018-07-14T19:30:18.701Z,51.20
2018-07-14T19:32:45.792Z,51.30
2018-07-14T19:35:12.942Z,51.40
2018-07-14T19:37:40.188Z,51.70
2018-07-14T19:40:07.436Z,51.70
2018-07-14T19:42:34.650Z,51.70
2018-07-14T19:45:01.952Z,51.70
2018-07-14T19:47:29.212Z,51.60
2018-07-14T19:49:56.348Z,51.80
2018-07-14T19:52:23.677Z,51.90
2018-07-14T19:54:50.909Z,51.80
2018-07-14T19:57:18.130Z,52.00
2018-07-14T19:59:45.308Z,52.20
2018-07-14T20:02:12.585Z,52.30
2018-07-14T20:04:39.848Z,52.60
2018-07-14T20:07:07.132Z,52.80
2018-07-14T20:09:34.384Z,53.00
2018-07-14T20:12:01.623Z,53.40
2018-07-14T20:14:28.830Z,53.50
2018-07-14T20:16:56.065Z,53.80
2018-07-14T20:19:23.300Z,54.00
2018-07-14T20:21:50.521Z,54.20
2018-07-14T20:24:17.988Z,54.30
2018-07-14T20:26:45.432Z,54.50
2018-07-14T20:29:12.597Z,54.60
2018-07-14T20:31:39.756Z,54.80
2018-07-14T20:34:06.996Z,55.00
2018-07-14T20:36:34.341Z,55.00
2018-07-14T20:39:01.630Z,55.10
2018-07-14T20:41:28.893Z,55.40
2018-07-14T20:43:55.997Z,55.40
2018-07-14T20:46:23.277Z,55.40
2018-07-14T20:48:50.547Z,55.50
2018-07-14T20:51:17.774Z,55.60
2018-07-14T20:53:44.976Z,55.60
2018-07-14T20:56:12.192Z,55.50
2018-07-14T20:58:39.416Z,55.60
2018-07-14T21:01:06.656Z,55.60
2018-07-14T21:03:33.852Z,55.60
2018-07-14T21:06:01.082Z,55.80
2018-07-14T21:08:28.240Z,55.70
2018-07-14T21:10:55.509Z,55.70
2018-07-14T21:13:22.744Z,55.80
2018-07-14T21:15:49.933Z,55.80
2018-07-14T21:18:17.159Z,56.00
2018-07-14T21:20:44.491Z,55.90
2018-07-14T21:23:11.699Z,56.10
2018-07-14T21:25:38.895Z,56.10
2018-07-14T21:28:06.118Z,56.10
2018-07-14T21:30:33.418Z,56.20
2018-07-14T21:33:00.576Z,56.30
2018-07-14T21:35:27.776Z,56.20
2018-07-14T21:37:55.041Z,56.20
2018-07-14T21:40:22.275Z,56.30
2018-07-14T21:42:49.480Z,56.40
2018-07-14T21:45:17.749Z,56.50
2018-07-14T21:47:44.926Z,56.40
2018-07-14T21:50:12.343Z,56.50
2018-07-14T21:52:39.591Z,56.40
2018-07-14T21:55:06.779Z,56.50
2018-07-14T21:57:33.988Z,56.80
2018-07-14T22:00:01.181Z,56.80
2018-07-14T22:02:28.467Z,56.90
2018-07-14T22:04:55.732Z,57.00
2018-07-14T22:07:22.996Z,57.00
2018-07-14T22:09:50.210Z,57.70
2018-07-14T22:12:17.476Z,57.20
2018-07-14T22:14:44.610Z,57.30
2018-07-14T22:17:11.889Z,57.30
2018-07-14T22:19:39.104Z,57.30
2018-07-14T22:22:06.341Z,57.40
2018-07-14T22:24:33.553Z,57.40
2018-07-14T22:27:00.744Z,57.40
2018-07-14T22:29:27.964Z,57.40
2018-07-14T22:31:55.290Z,57.50
2018-07-14T22:34:22.493Z,57.70
2018-07-14T22:36:49.761Z,57.80
2018-07-14T22:39:17.017Z,57.80
2018-07-14T22:41:45.331Z,57.80
2018-07-14T22:44:12.552Z,57.80
2018-07-14T22:46:39.732Z,57.80
2018-07-14T22:49:06.991Z,57.80
2018-07-14T22:51:34.233Z,57.90
2018-07-14T22:54:01.502Z,57.80
2018-07-14T22:56:28.703Z,57.70
2018-07-14T22:58:55.932Z,57.80
2018-07-14T23:01:23.152Z,57.80
2018-07-14T23:03:50.421Z,57.90
2018-07-14T23:06:17.648Z,57.90
2018-07-14T23:08:44.841Z,57.80
2018-07-14T23:11:12.024Z,57.90
2018-07-14T23:13:39.245Z,57.90
2018-07-14T23:16:06.450Z,58.00
2018-07-14T23:18:33.578Z,58.00
2018-07-14T23:21:00.821Z,58.10
2018-07-14T23:23:28.093Z,58.20
2018-07-14T23:25:55.440Z,58.20
2018-07-14T23:30:50.934Z,57.80
2018-07-14T23:33:18.173Z,58.30
2018-07-14T23:35:45.450Z,58.30
2018-07-14T23:38:12.651Z,58.40
2018-07-14T23:40:40.000Z,58.50
2018-07-14T23:43:07.248Z,58.50
2018-07-14T23:45:34.421Z,58.40
2018-07-14T23:48:01.700Z,58.40
2018-07-14T23:50:28.884Z,58.40
2018-07-14T23:52:56.093Z,58.40
2018-07-14T23:55:23.304Z,58.40
2018-07-14T23:57:50.520Z,58.50
